Time;durP1;ratioP1;P1;durP2;ratioP2;P2;SDS_P1;SDS_P2;PMS_P1;PMS_P2;Temp;Humidity;BMP_temperature;BMP_pressure;BME280_temperature;BME280_humidity;BME280_pressure;Samples;Min_cycle;Max_cycle;Signal;HPM_P1;HPM_P2
2021/05/05 00:00:33;;;;;;;34.72;23.08;;;17.70;67.00;;;;;;5074836;28;20029;-63
2021/05/05 00:02:58;;;;;;;39.42;24.80;;;17.70;66.80;;;;;;5074832;28;20495;-63
2021/05/05 00:05:25;;;;;;;37.60;22.77;;;17.70;66.80;;;;;;5075066;28;20037;-62
2021/05/05 00:07:50;;;;;;;39.33;21.88;;;17.60;66.90;;;;;;5074717;28;20025;-63
2021/05/05 00:10:17;;;;;;;33.45;22.50;;;17.70;66.80;;;;;;5074552;28;20047;-61
2021/05/05 00:12:44;;;;;;;34.90;20.35;;;17.70;66.70;;;;;;5074945;28;20462;-63
2021/05/05 00:15:21;;;;;;;37.75;22.95;;;17.70;66.70;;;;;;5074869;28;20033;-63
2021/05/05 00:17:47;;;;;;;35.90;21.33;;;17.70;66.50;;;;;;5075173;28;20020;-62
2021/05/05 00:20:14;;;;;;;33.65;20.63;;;17.70;66.60;;;;;;5074667;28;20020;-63
2021/05/05 00:22:40;;;;;;;39.03;23.65;;;17.70;66.60;;;;;;5074650;28;20074;-63
2021/05/05 00:25:07;;;;;;;33.30;21.42;;;17.70;66.80;;;;;;5074164;28;20053;-63
2021/05/05 00:27:33;;;;;;;31.70;20.48;;;17.70;67.00;;;;;;5074628;28;20032;-63
2021/05/05 00:29:59;;;;;;;37.72;21.55;;;17.60;66.90;;;;;;5074452;28;20025;-62
2021/05/05 00:32:25;;;;;;;38.45;21.90;;;17.60;66.90;;;;;;5074266;28;20024;-64
2021/05/05 00:34:50;;;;;;;36.65;21.60;;;17.60;67.00;;;;;;5074416;28;20568;-62
2021/05/05 00:37:16;;;;;;;33.17;20.73;;;17.60;67.00;;;;;;5074286;28;20028;-63
2021/05/05 00:39:42;;;;;;;32.85;19.90;;;17.60;67.20;;;;;;5074158;28;20080;-63
2021/05/05 00:42:08;;;;;;;35.72;21.58;;;17.50;67.10;;;;;;5074488;28;20032;-62
2021/05/05 00:44:33;;;;;;;33.03;19.70;;;17.50;67.20;;;;;;5074365;28;20037;-62
2021/05/05 00:47:00;;;;;;;32.13;21.02;;;17.50;67.20;;;;;;5074099;28;20033;-63
2021/05/05 00:49:26;;;;;;;31.48;20.65;;;17.50;67.20;;;;;;5074145;28;20466;-62
2021/05/05 00:51:52;;;;;;;30.02;18.75;;;17.50;67.40;;;;;;5074132;28;20043;-62
2021/05/05 00:54:17;;;;;;;34.42;20.88;;;17.50;67.50;;;;;;5074048;28;20466;-65
2021/05/05 00:56:44;;;;;;;29.50;18.80;;;17.60;67.30;;;;;;5073863;28;20060;-62
2021/05/05 00:59:10;;;;;;;30.33;17.95;;;17.60;67.20;;;;;;5073952;28;20028;-62
2021/05/05 01:01:36;;;;;;;29.98;17.65;;;17.60;67.20;;;;;;5073838;28;20078;-63
2021/05/05 01:04:01;;;;;;;31.13;18.48;;;17.60;67.10;;;;;;5073674;28;20113;-62
2021/05/05 01:06:27;;;;;;;27.30;17.75;;;17.70;67.10;;;;;;5073498;28;20452;-62
2021/05/05 01:08:54;;;;;;;32.15;18.13;;;17.70;66.90;;;;;;5073801;28;20025;-63
2021/05/05 01:11:19;;;;;;;29.05;17.95;;;17.70;66.80;;;;;;5074072;28;20039;-62
2021/05/05 01:13:45;;;;;;;32.47;18.95;;;17.70;66.80;;;;;;5073449;28;20037;-64
2021/05/05 01:16:15;;;;;;;30.63;18.50;;;17.70;66.80;;;;;;5073397;28;20083;-63
2021/05/05 01:18:42;;;;;;;25.77;17.63;;;17.60;67.00;;;;;;5073407;28;20028;-61
2021/05/05 01:21:08;;;;;;;29.42;17.20;;;17.60;67.00;;;;;;5073590;28;20371;-62
2021/05/05 01:23:34;;;;;;;27.23;17.35;;;17.60;67.00;;;;;;5073477;28;20055;-62
2021/05/05 01:26:00;;;;;;;26.92;17.10;;;17.50;67.20;;;;;;5073209;28;20048;-62
2021/05/05 01:28:26;;;;;;;28.00;17.23;;;17.60;67.30;;;;;;5073263;28;20039;-62
2021/05/05 01:30:52;;;;;;;27.15;17.55;;;17.50;67.20;;;;;;5073316;28;20111;-61
2021/05/05 01:33:19;;;;;;;27.08;16.17;;;17.50;67.20;;;;;;5073188;28;20096;-62
2021/05/05 01:35:47;;;;;;;27.15;15.82;;;17.50;67.40;;;;;;5073081;28;20051;-62
2021/05/05 01:38:13;;;;;;;24.80;15.40;;;17.50;67.40;;;;;;5073302;28;20024;-62
2021/05/05 01:40:42;;;;;;;27.35;16.17;;;17.50;67.50;;;;;;5073158;28;20029;-62
2021/05/05 01:43:07;;;;;;;24.15;17.10;;;17.50;67.60;;;;;;5072996;28;20052;-62
2021/05/05 01:45:35;;;;;;;28.17;17.52;;;17.40;67.50;;;;;;5072961;28;20462;-62
2021/05/05 01:48:03;;;;;;;27.00;16.27;;;17.40;67.50;;;;;;5072412;28;20070;-65
2021/05/05 01:50:30;;;;;;;28.40;16.30;;;17.40;67.50;;;;;;5072871;28;20028;-62
2021/05/05 01:52:56;;;;;;;24.50;15.25;;;17.50;67.50;;;;;;5073067;28;20025;-61
2021/05/05 01:55:22;;;;;;;24.20;16.55;;;17.50;67.20;;;;;;5072990;28;20060;-62
2021/05/05 01:57:48;;;;;;;26.85;15.52;;;17.50;67.30;;;;;;5072933;28;20063;-62
2021/05/05 02:00:23;;;;;;;28.02;16.25;;;17.50;67.30;;;;;;5072738;28;20131;-62
2021/05/05 02:02:49;;;;;;;22.20;14.52;;;17.50;67.30;;;;;;5072651;28;20529;-62
2021/05/05 02:05:15;;;;;;;23.42;14.35;;;17.50;67.30;;;;;;5072727;28;20108;-62
2021/05/05 02:07:41;;;;;;;22.75;14.23;;;17.60;67.30;;;;;;5072847;28;20024;-62
2021/05/05 02:10:10;;;;;;;26.27;15.70;;;17.60;67.20;;;;;;5072711;28;20060;-62
2021/05/05 02:12:36;;;;;;;24.92;13.43;;;17.60;67.20;;;;;;5072727;28;20100;-62
2021/05/05 02:15:03;;;;;;;25.27;14.45;;;17.60;67.30;;;;;;5072734;28;20079;-62
2021/05/05 02:17:28;;;;;;;21.25;14.02;;;17.50;67.40;;;;;;5072766;28;20051;-63
2021/05/05 02:19:54;;;;;;;23.67;13.68;;;17.50;68.10;;;;;;5073095;28;20474;-62
2021/05/05 02:22:20;;;;;;;24.00;14.50;;;17.50;67.50;;;;;;5072866;28;20060;-62
2021/05/05 02:24:46;;;;;;;21.30;14.32;;;17.50;67.60;;;;;;5072397;28;20099;-62
2021/05/05 02:27:12;;;;;;;26.15;14.52;;;17.40;67.60;;;;;;5072876;28;20484;-62
2021/05/05 02:29:38;;;;;;;21.73;14.15;;;17.40;67.70;;;;;;5072614;28;20119;-62
2021/05/05 02:32:07;;;;;;;21.35;13.43;;;17.40;67.70;;;;;;5073300;28;20098;-62
2021/05/05 02:34:35;;;;;;;24.57;14.17;;;17.40;67.60;;;;;;5072910;28;20056;-62
2021/05/05 02:37:02;;;;;;;25.42;14.60;;;17.40;67.70;;;;;;5073182;28;20555;-62
2021/05/05 02:39:27;;;;;;;24.52;14.38;;;17.40;67.80;;;;;;5072955;28;20115;-62
2021/05/05 02:41:53;;;;;;;21.35;12.73;;;17.40;67.90;;;;;;5072977;28;20142;-62
2021/05/05 02:44:19;;;;;;;21.30;13.70;;;17.40;67.90;;;;;;5073238;28;20029;-61
2021/05/05 02:46:45;;;;;;;25.15;14.65;;;17.30;67.90;;;;;;5072679;28;20032;-62
2021/05/05 02:49:10;;;;;;;21.65;12.90;;;17.40;68.00;;;;;;5072880;28;20027;-62
2021/05/05 02:51:36;;;;;;;18.25;12.43;;;17.40;67.70;;;;;;5072530;28;20348;-62
2021/05/05 02:54:03;;;;;;;22.58;13.30;;;17.50;67.50;;;;;;5072651;28;20064;-62
2021/05/05 02:56:28;;;;;;;18.83;11.57;;;17.50;67.40;;;;;;5072601;28;20033;-62
2021/05/05 02:58:54;;;;;;;21.15;13.02;;;17.50;67.40;;;;;;5073484;28;20033;-62
2021/05/05 03:01:20;;;;;;;21.95;12.57;;;17.50;67.50;;;;;;5076030;28;20028;-62
2021/05/05 03:03:46;;;;;;;22.08;12.68;;;17.50;67.50;;;;;;5076235;28;20063;-62
2021/05/05 03:06:17;;;;;;;18.42;12.38;;;17.50;67.40;;;;;;5075875;28;20028;-62
2021/05/05 03:08:43;;;;;;;17.05;11.65;;;17.50;67.50;;;;;;5075832;28;20016;-62
2021/05/05 03:11:09;;;;;;;21.00;11.95;;;17.50;67.50;;;;;;5076158;28;20420;-62
2021/05/05 03:13:34;;;;;;;18.90;11.48;;;17.50;67.60;;;;;;5076155;28;20021;-62
2021/05/05 03:16:00;;;;;;;18.08;11.63;;;17.50;68.40;;;;;;5075765;28;20032;-62
2021/05/05 03:18:26;;;;;;;18.35;11.35;;;17.40;67.60;;;;;;5075894;28;20024;-62
2021/05/05 03:20:51;;;;;;;18.90;12.73;;;17.40;67.60;;;;;;5075618;28;20103;-62
2021/05/05 03:23:17;;;;;;;18.13;10.48;;;17.40;67.70;;;;;;5075456;28;20028;-62
2021/05/05 03:25:43;;;;;;;18.20;11.02;;;17.40;67.80;;;;;;5075575;28;20523;-62
2021/05/05 03:28:09;;;;;;;18.83;11.52;;;17.40;67.90;;;;;;5075587;28;20021;-62
2021/05/05 03:30:35;;;;;;;18.80;11.07;;;17.30;67.90;;;;;;5075555;28;20035;-62
2021/05/05 03:33:01;;;;;;;19.08;12.25;;;17.30;68.00;;;;;;5075485;28;20039;-62
2021/05/05 03:35:27;;;;;;;19.73;11.40;;;17.30;68.00;;;;;;5075397;28;20036;-62
2021/05/05 03:37:53;;;;;;;15.07;10.73;;;17.30;68.00;;;;;;5075543;28;20030;-62
2021/05/05 03:40:19;;;;;;;19.23;11.23;;;17.30;68.10;;;;;;5075410;28;20025;-62
2021/05/05 03:42:45;;;;;;;17.17;11.55;;;17.30;68.10;;;;;;5075937;28;20025;-62
2021/05/05 03:45:11;;;;;;;17.60;11.48;;;17.30;68.20;;;;;;5075402;28;20029;-62
2021/05/05 03:47:37;;;;;;;18.42;11.35;;;17.30;68.10;;;;;;5075332;28;20170;-62
2021/05/05 03:50:05;;;;;;;18.67;10.63;;;17.30;68.10;;;;;;5075440;28;20104;-65
2021/05/05 03:52:30;;;;;;;18.67;11.27;;;17.40;68.00;;;;;;5075263;28;20039;-62
2021/05/05 03:54:56;;;;;;;14.55;10.25;;;17.40;67.70;;;;;;5075082;28;20036;-62
2021/05/05 03:57:22;;;;;;;15.30;10.15;;;17.50;67.60;;;;;;5075175;28;20028;-63
2021/05/05 03:59:47;;;;;;;16.63;9.80;;;17.50;67.70;;;;;;5075466;28;20020;-62
2021/05/05 04:02:13;;;;;;;19.83;10.52;;;17.50;67.70;;;;;;5075026;28;20024;-62
2021/05/05 04:04:39;;;;;;;14.35;9.52;;;17.40;67.60;;;;;;5074921;28;20549;-62
2021/05/05 04:07:04;;;;;;;16.00;10.93;;;17.40;67.70;;;;;;5074928;28;20036;-62
2021/05/05 04:09:30;;;;;;;16.75;9.52;;;17.40;67.80;;;;;;5074444;28;20036;-62
2021/05/05 04:11:56;;;;;;;17.33;11.07;;;17.40;67.90;;;;;;5074986;28;20033;-62
2021/05/05 04:14:22;;;;;;;14.63;10.10;;;17.40;68.00;;;;;;5074753;28;20157;-62
2021/05/05 04:16:47;;;;;;;16.75;10.45;;;17.40;67.90;;;;;;5074737;28;20032;-62
2021/05/05 04:19:13;;;;;;;20.63;11.13;;;17.30;67.90;;;;;;5075060;28;20025;-61
2021/05/05 04:21:39;;;;;;;16.23;9.70;;;17.30;68.00;;;;;;5075144;28;20030;-62
2021/05/05 04:24:05;;;;;;;15.70;9.68;;;17.30;68.10;;;;;;5074364;28;20045;-62
2021/05/05 04:26:31;;;;;;;18.35;11.23;;;17.30;68.10;;;;;;5074439;28;20108;-62
2021/05/05 04:28:57;;;;;;;14.63;10.05;;;17.30;68.20;;;;;;5074953;28;20514;-62
2021/05/05 04:31:23;;;;;;;20.38;10.43;;;17.30;68.30;;;;;;5075054;28;20024;-62
2021/05/05 04:33:49;;;;;;;17.88;9.48;;;17.30;68.30;;;;;;5074843;28;20032;-60
2021/05/05 04:36:14;;;;;;;15.48;9.30;;;17.30;68.40;;;;;;5074904;28;20029;-61
2021/05/05 04:38:41;;;;;;;17.20;10.50;;;17.20;68.50;;;;;;5074561;28;20029;-61
2021/05/05 04:41:07;;;;;;;16.42;9.80;;;17.20;68.50;;;;;;5074814;28;20077;-62
2021/05/05 04:43:33;;;;;;;13.73;8.77;;;17.20;68.50;;;;;;5074558;28;20489;-63
2021/05/05 04:45:59;;;;;;;14.43;10.45;;;17.20;68.50;;;;;;5074819;28;20028;-62
2021/05/05 04:48:25;;;;;;;15.63;8.88;;;17.20;68.50;;;;;;5074656;28;20084;-62
2021/05/05 04:50:50;;;;;;;15.25;10.20;;;17.30;68.30;;;;;;5074779;28;20470;-61
2021/05/05 04:53:16;;;;;;;16.65;9.80;;;17.30;68.20;;;;;;5074192;28;20036;-62
2021/05/05 04:55:42;;;;;;;15.98;9.10;;;17.40;67.90;;;;;;5074584;28;20580;-62
2021/05/05 04:58:07;;;;;;;15.82;8.52;;;17.40;67.70;;;;;;5074642;28;20023;-61
2021/05/05 05:00:34;;;;;;;14.00;8.82;;;17.50;67.70;;;;;;5074320;28;20107;-60
2021/05/05 05:03:00;;;;;;;13.32;9.20;;;17.50;67.80;;;;;;5074269;28;20466;-59
2021/05/05 05:05:26;;;;;;;16.55;8.93;;;17.50;68.00;;;;;;5074338;28;20039;-60
2021/05/05 05:07:54;;;;;;;15.13;9.05;;;17.40;68.20;;;;;;5074239;28;20024;-59
2021/05/05 05:10:20;;;;;;;15.05;9.82;;;17.40;68.30;;;;;;5056458;28;20390;-60
2021/05/05 05:12:46;;;;;;;13.80;8.35;;;17.40;68.20;;;;;;5074503;28;20020;-59
2021/05/05 05:15:12;;;;;;;16.77;9.38;;;17.30;68.30;;;;;;5073827;28;20025;-63
2021/05/05 05:17:37;;;;;;;14.88;9.50;;;17.30;68.30;;;;;;5073890;28;20432;-60
2021/05/05 05:20:07;;;;;;;13.65;8.63;;;17.30;68.40;;;;;;5073657;28;20458;-60
2021/05/05 05:22:35;;;;;;;13.02;8.70;;;17.30;68.50;;;;;;5072941;28;20424;-60
2021/05/05 05:25:03;;;;;;;15.82;8.88;;;17.20;68.50;;;;;;5073130;28;20109;-61
2021/05/05 05:27:29;;;;;;;13.82;8.02;;;17.20;68.50;;;;;;5073366;28;20154;-61
2021/05/05 05:29:54;;;;;;;12.38;8.57;;;17.20;68.60;;;;;;5073439;28;20115;-60
2021/05/05 05:32:20;;;;;;;14.02;8.65;;;17.20;68.70;;;;;;5055498;28;20097;-61
2021/05/05 05:34:46;;;;;;;14.38;8.88;;;17.20;68.70;;;;;;5073314;28;20055;-61
2021/05/05 05:37:11;;;;;;;14.77;8.65;;;17.20;68.80;;;;;;5073370;28;20039;-60
2021/05/05 05:39:37;;;;;;;15.15;8.95;;;17.20;68.80;;;;;;5073385;28;20482;-60
2021/05/05 05:42:03;;;;;;;11.65;7.80;;;17.20;68.80;;;;;;5073350;28;20059;-60
2021/05/05 05:44:28;;;;;;;14.32;7.50;;;17.20;68.80;;;;;;5073276;28;20036;-60
2021/05/05 05:46:54;;;;;;;12.88;7.93;;;17.20;68.90;;;;;;5073173;28;20474;-60
2021/05/05 05:49:20;;;;;;;12.40;7.95;;;17.20;68.80;;;;;;5073388;28;20074;-60
2021/05/05 05:51:45;;;;;;;12.45;7.50;;;17.30;69.30;;;;;;5073370;28;20035;-64
2021/05/05 05:54:11;;;;;;;14.95;8.18;;;17.30;68.40;;;;;;5073332;28;20036;-60
2021/05/05 05:56:37;;;;;;;12.65;8.57;;;17.40;68.20;;;;;;5073164;28;20063;-60
2021/05/05 05:59:02;;;;;;;11.15;7.63;;;17.40;68.00;;;;;;5073213;28;20020;-59
2021/05/05 06:01:28;;;;;;;13.98;8.30;;;17.50;68.00;;;;;;5073286;28;20032;-59
2021/05/05 06:03:54;;;;;;;11.77;8.10;;;17.50;67.80;;;;;;5072737;28;20040;-60
2021/05/05 06:06:20;;;;;;;12.15;8.18;;;17.60;67.60;;;;;;5073210;28;20028;-61
2021/05/05 06:08:45;;;;;;;16.10;7.47;;;17.70;67.90;;;;;;5072710;28;20048;-58
2021/05/05 06:11:11;;;;;;;14.48;8.30;;;17.60;67.90;;;;;;5073518;28;20025;-59
2021/05/05 06:13:36;;;;;;;13.15;8.95;;;17.60;68.10;;;;;;5073030;28;20031;-60
2021/05/05 06:16:02;;;;;;;12.82;8.48;;;17.60;68.30;;;;;;5073208;28;20024;-59
2021/05/05 06:18:28;;;;;;;14.25;8.38;;;17.60;68.40;;;;;;5072965;28;20104;-60
2021/05/05 06:20:54;;;;;;;14.75;8.07;;;17.50;68.60;;;;;;5072970;28;20055;-62
2021/05/05 06:23:19;;;;;;;13.88;9.85;;;17.50;68.60;;;;;;5072924;28;20028;-62
2021/05/05 06:25:45;;;;;;;16.63;8.32;;;17.50;68.60;;;;;;5073312;28;20035;-62
2021/05/05 06:28:11;;;;;;;11.95;8.23;;;17.50;68.80;;;;;;5073024;28;20466;-62
2021/05/05 06:30:36;;;;;;;13.60;8.48;;;17.50;68.70;;;;;;5073043;28;20048;-61
2021/05/05 06:33:02;;;;;;;16.42;9.15;;;17.50;68.80;;;;;;5074323;28;20067;-64
2021/05/05 06:35:28;;;;;;;15.10;8.57;;;17.50;69.00;;;;;;5077179;28;20028;-62
2021/05/05 06:37:54;;;;;;;13.70;9.07;;;17.50;69.00;;;;;;5076895;28;20505;-61
2021/05/05 06:40:19;;;;;;;12.68;7.65;;;17.40;69.00;;;;;;5076663;28;20363;-62
2021/05/05 06:42:46;;;;;;;14.43;8.40;;;17.40;69.20;;;;;;5076582;28;20069;-62
2021/05/05 06:45:12;;;;;;;12.98;7.70;;;17.40;69.50;;;;;;5076760;28;20033;-62
2021/05/05 06:47:38;;;;;;;10.40;7.05;;;17.40;69.60;;;;;;5077082;28;20033;-66
2021/05/05 06:50:07;;;;;;;13.02;7.85;;;17.40;69.60;;;;;;5076796;28;20024;-62
2021/05/05 06:52:33;;;;;;;13.23;8.02;;;17.40;69.30;;;;;;5076713;28;20016;-61
2021/05/05 06:54:58;;;;;;;13.93;7.28;;;17.50;69.20;;;;;;5076549;28;20064;-62
2021/05/05 06:57:24;;;;;;;11.40;7.07;;;17.60;69.00;;;;;;5076446;28;20033;-59
2021/05/05 06:59:50;;;;;;;12.82;8.25;;;17.60;68.80;;;;;;5076457;28;20060;-63
2021/05/05 07:02:16;;;;;;;15.85;7.43;;;17.60;68.80;;;;;;5076450;28;20031;-61
2021/05/05 07:04:41;;;;;;;15.57;7.80;;;17.60;68.50;;;;;;5076297;28;20566;-61
2021/05/05 07:07:07;;;;;;;13.75;8.48;;;17.70;68.50;;;;;;5076194;28;20024;-61
2021/05/05 07:09:33;;;;;;;13.38;7.65;;;17.70;68.60;;;;;;5071321;28;20079;-61
2021/05/05 07:11:59;;;;;;;10.93;7.03;;;17.60;68.60;;;;;;5074941;28;20036;-62
2021/05/05 07:14:24;;;;;;;10.20;6.55;;;17.60;68.70;;;;;;5076096;28;20028;-61
2021/05/05 07:16:50;;;;;;;14.02;7.68;;;17.60;69.50;;;;;;5074476;28;20094;-65
2021/05/05 07:19:16;;;;;;;12.15;7.03;;;17.50;68.80;;;;;;5056460;28;20029;-62
2021/05/05 07:21:42;;;;;;;12.45;7.25;;;17.50;69.10;;;;;;5056424;28;20025;-61
2021/05/05 07:24:08;;;;;;;18.20;7.10;;;17.60;69.00;;;;;;5056143;28;20148;-61
2021/05/05 07:26:33;;;;;;;15.63;7.97;;;17.70;68.00;;;;;;5056343;28;20439;-61
2021/05/05 07:28:59;;;;;;;12.30;7.80;;;17.70;67.20;;;;;;5060092;28;20029;-63
2021/05/05 07:31:25;;;;;;;13.63;7.57;;;17.60;66.70;;;;;;5064403;28;20056;-62
2021/05/05 07:33:51;;;;;;;11.38;7.32;;;17.70;67.00;;;;;;5069420;28;20029;-63
2021/05/05 07:36:21;;;;;;;11.10;6.35;;;17.70;66.60;;;;;;5074293;28;20035;-61
2021/05/05 07:49:17;;;;;;;76.28;46.13;;;17.70;64.70;;;;;;5064276;28;20017;-61
2021/05/05 07:51:44;;;;;;;85.30;48.30;;;17.80;64.60;;;;;;5075549;28;20111;-61
2021/05/05 07:54:11;;;;;;;87.80;50.25;;;17.90;64.40;;;;;;5075426;28;20029;-61
2021/05/05 07:56:37;;;;;;;46.42;29.15;;;17.90;63.90;;;;;;5076076;28;20078;-61
2021/05/05 07:59:04;;;;;;;49.53;31.38;;;17.90;63.90;;;;;;5075564;28;20423;-61
2021/05/05 08:01:31;;;;;;;43.30;26.38;;;17.90;63.50;;;;;;5075664;28;20024;-61
2021/05/05 08:03:58;;;;;;;31.83;18.63;;;17.90;63.70;;;;;;5075423;28;20040;-61
2021/05/05 08:06:25;;;;;;;34.55;19.52;;;18.00;63.90;;;;;;5075568;28;20033;-61
2021/05/05 08:08:52;;;;;;;19.55;12.95;;;18.00;63.80;;;;;;5075446;28;20488;-61
2021/05/05 08:11:17;;;;;;;20.25;13.70;;;17.90;63.30;;;;;;5075695;28;20032;-61
2021/05/05 08:13:44;;;;;;;18.98;12.50;;;17.90;63.50;;;;;;5075450;28;20024;-61
2021/05/05 08:16:10;;;;;;;21.55;10.32;;;17.90;64.30;;;;;;5075344;28;20397;-61
2021/05/05 08:18:36;;;;;;;14.55;10.90;;;17.90;64.50;;;;;;5074998;28;20025;-61
2021/05/05 08:21:07;;;;;;;17.83;10.18;;;17.90;64.60;;;;;;5075111;28;20039;-62
2021/05/05 08:23:33;;;;;;;12.40;9.13;;;17.90;64.30;;;;;;5070557;28;20478;-61
2021/05/05 08:25:59;;;;;;;14.02;9.60;;;17.90;64.70;;;;;;5075150;28;20037;-61
2021/05/05 08:28:25;;;;;;;10.52;8.32;;;17.90;64.10;;;;;;5074902;28;20032;-61
2021/05/05 08:30:51;;;;;;;12.65;8.50;;;17.90;64.30;;;;;;5075311;28;20060;-60
2021/05/05 08:33:18;;;;;;;11.25;8.55;;;17.90;64.80;;;;;;5075389;28;20029;-62
2021/05/05 08:35:44;;;;;;;13.45;8.07;;;17.70;65.80;;;;;;5074832;28;20102;-72
2021/05/05 08:38:10;;;;;;;10.18;8.45;;;17.60;66.40;;;;;;5075166;28;20107;-66
2021/05/05 08:40:35;;;;;;;11.98;8.88;;;17.70;66.50;;;;;;5057328;28;20078;-61
2021/05/05 08:43:02;;;;;;;13.75;9.45;;;17.90;66.80;;;;;;5074635;28;20021;-64
2021/05/05 08:45:29;;;;;;;11.98;8.52;;;18.00;66.70;;;;;;5066501;28;20083;-61
2021/05/05 08:47:58;;;;;;;16.25;9.02;;;18.20;66.00;;;;;;5064456;28;20056;-61
2021/05/05 08:50:27;;;;;;;165.63;88.00;;;18.30;65.70;;;;;;5063035;28;20059;-59
2021/05/05 08:52:53;;;;;;;127.68;73.78;;;18.30;65.10;;;;;;5062989;28;20338;-58
2021/05/05 08:55:21;;;;;;;122.63;71.45;;;18.40;65.00;;;;;;5064282;28;20028;-69
2021/05/05 08:57:48;;;;;;;96.90;58.63;;;18.50;64.70;;;;;;5060465;28;20376;-60
2021/05/05 09:00:17;;;;;;;64.78;41.70;;;18.50;64.20;;;;;;5054473;28;20057;-61
2021/05/05 09:02:43;;;;;;;58.40;36.55;;;18.50;63.90;;;;;;5054668;28;20136;-59
2021/05/05 09:05:12;;;;;;;41.92;25.30;;;18.50;64.10;;;;;;5054342;28;20065;-62
2021/05/05 09:07:41;;;;;;;33.13;21.25;;;18.50;63.90;;;;;;5054455;28;20035;-59
2021/05/05 09:10:14;;;;;;;30.42;18.83;;;18.50;63.80;;;;;;5054400;28;20029;-61
2021/05/05 09:12:42;;;;;;;22.25;14.57;;;18.50;63.80;;;;;;5054663;28;20483;-61
2021/05/05 09:15:17;;;;;;;18.63;13.07;;;18.50;64.00;;;;;;5054413;28;20028;-63
2021/05/05 09:17:49;;;;;;;19.67;13.30;;;18.50;64.00;;;;;;5054176;28;20025;-62
2021/05/05 09:20:40;;;;;;;16.42;12.13;;;18.50;64.10;;;;;;5054648;28;20048;-62
2021/05/05 09:23:06;;;;;;;16.98;10.82;;;18.50;64.10;;;;;;5050339;28;20475;-61
2021/05/05 09:25:32;;;;;;;17.65;9.45;;;18.60;63.80;;;;;;5053904;28;20055;-62
2021/05/05 09:28:21;;;;;;;15.00;11.07;;;18.60;63.90;;;;;;5054231;28;20040;-61
2021/05/05 09:30:52;;;;;;;15.82;10.02;;;18.60;63.90;;;;;;5054404;28;20025;-61
2021/05/05 09:33:26;;;;;;;19.52;9.65;;;18.70;63.70;;;;;;5054065;28;20046;-62
2021/05/05 09:35:54;;;;;;;56.80;34.85;;;18.70;63.10;;;;;;5054255;28;20037;-63
2021/05/05 09:38:20;;;;;;;62.08;38.92;;;18.90;63.40;;;;;;5064555;28;20032;-63
2021/05/05 09:40:57;;;;;;;65.30;43.10;;;19.00;63.70;;;;;;5074056;28;20020;-62
2021/05/05 09:43:25;;;;;;;120.78;70.82;;;19.00;63.00;;;;;;5073590;28;20055;-62
2021/05/05 09:45:51;;;;;;;99.28;64.00;;;18.90;62.80;;;;;;5073923;28;20032;-62
2021/05/05 09:48:24;;;;;;;86.50;55.47;;;18.90;61.20;;;;;;5073778;28;20377;-62
2021/05/05 09:51:01;;;;;;;65.80;40.05;;;18.80;61.30;;;;;;5067776;28;20663;-63
2021/05/05 09:53:32;;;;;;;51.33;33.85;;;19.00;61.30;;;;;;5060895;28;20021;-62
2021/05/05 09:55:58;;;;;;;47.63;30.58;;;18.90;61.30;;;;;;5053201;28;20467;-63
2021/05/05 09:58:36;;;;;;;43.42;27.95;;;18.90;61.70;;;;;;5063090;28;20036;-62
2021/05/05 10:01:10;;;;;;;38.60;24.85;;;19.00;61.10;;;;;;5061182;28;20477;-62
2021/05/05 10:03:52;;;;;;;35.70;21.73;;;19.00;61.30;;;;;;5044209;28;20097;-62
2021/05/05 10:06:18;;;;;;;30.25;19.13;;;19.10;61.00;;;;;;5063357;28;20120;-62
2021/05/05 10:08:44;;;;;;;35.50;18.88;;;19.10;61.30;;;;;;5060420;28;20028;-62
2021/05/05 10:11:11;;;;;;;23.45;17.60;;;19.20;61.40;;;;;;5062145;28;20111;-63
2021/05/05 10:13:37;;;;;;;24.50;17.75;;;19.20;61.70;;;;;;5061583;28;20474;-63
2021/05/05 10:16:04;;;;;;;26.33;17.33;;;19.20;61.60;;;;;;5063001;28;20031;-63
2021/05/05 10:18:30;;;;;;;27.02;14.70;;;19.20;62.00;;;;;;5062155;28;20025;-63
2021/05/05 10:20:57;;;;;;;19.02;12.80;;;19.20;62.10;;;;;;5061448;28;20466;-62
2021/05/05 10:23:24;;;;;;;29.20;13.75;;;19.20;62.10;;;;;;5062838;28;20016;-62
2021/05/05 10:25:50;;;;;;;19.70;13.00;;;19.10;61.90;;;;;;5062280;28;20029;-62
2021/05/05 10:28:17;;;;;;;16.38;11.50;;;19.10;62.10;;;;;;5061394;28;20028;-64
2021/05/05 10:30:44;;;;;;;15.90;12.15;;;19.10;62.40;;;;;;5063012;28;20104;-62
2021/05/05 10:33:20;;;;;;;31.10;19.02;;;19.10;62.40;;;;;;5061954;28;20478;-66
2021/05/05 10:35:46;;;;;;;38.28;23.98;;;19.20;62.00;;;;;;5061229;28;20063;-63
2021/05/05 10:38:32;;;;;;;47.92;31.52;;;19.20;62.20;;;;;;5061726;28;20020;-62
2021/05/05 10:41:09;;;;;;;40.42;27.30;;;19.20;62.30;;;;;;5062968;28;20028;-62
2021/05/05 10:43:49;;;;;;;41.92;28.05;;;19.30;62.00;;;;;;5062418;28;20017;-63
2021/05/05 10:46:34;;;;;;;49.20;29.52;;;19.30;62.10;;;;;;5062514;28;20144;-62
2021/05/05 10:49:17;;;;;;;58.38;36.95;;;19.30;62.30;;;;;;5062885;28;20083;-63
2021/05/05 10:51:46;;;;;;;60.83;39.05;;;19.20;62.20;;;;;;5062820;28;20028;-62
2021/05/05 10:54:12;;;;;;;56.72;36.85;;;19.20;61.80;;;;;;5061807;28;20040;-63
2021/05/05 10:56:38;;;;;;;67.80;40.47;;;19.10;62.00;;;;;;5060775;28;20055;-63
2021/05/05 10:59:09;;;;;;;44.88;30.20;;;19.10;62.20;;;;;;5062692;28;20462;-63
2021/05/05 11:01:46;;;;;;;42.92;29.48;;;19.10;62.20;;;;;;5062302;28;20056;-63
2021/05/05 11:04:14;;;;;;;46.00;29.02;;;19.10;62.80;;;;;;5061634;28;20037;-63
2021/05/05 11:06:48;;;;;;;54.20;33.33;;;19.10;63.30;;;;;;5060611;28;20037;-62
2021/05/05 11:09:17;;;;;;;72.15;44.50;;;19.00;63.40;;;;;;5052503;28;20467;-61
2021/05/05 11:11:45;;;;;;;67.63;43.15;;;19.00;63.30;;;;;;5052685;28;20029;-62
2021/05/05 11:14:23;;;;;;;61.92;39.03;;;19.00;63.70;;;;;;5052583;28;20025;-66
2021/05/05 11:16:55;;;;;;;54.40;35.30;;;19.10;64.50;;;;;;5034858;28;20490;-61
2021/05/05 11:19:45;;;;;;;55.13;33.60;;;19.20;65.00;;;;;;5052706;28;20110;-62
2021/05/05 11:22:23;;;;;;;42.92;27.95;;;19.30;65.00;;;;;;5055989;28;20029;-62
2021/05/05 11:24:53;;;;;;;29.77;20.02;;;19.30;64.30;;;;;;5056112;28;20110;-62
2021/05/05 11:27:45;;;;;;;28.07;20.57;;;19.50;65.80;;;;;;5056147;28;20059;-62
2021/05/05 11:30:28;;;;;;;28.40;19.67;;;19.80;64.70;;;;;;5056214;28;20047;-62
2021/05/05 11:32:56;;;;;;;24.50;18.13;;;19.90;66.20;;;;;;5056246;28;20032;-61
2021/05/05 11:35:26;;;;;;;28.90;18.92;;;20.00;65.90;;;;;;5056102;28;20074;-58
2021/05/05 11:38:23;;;;;;;24.85;17.13;;;20.00;66.90;;;;;;5060966;28;20470;-65
2021/05/05 11:41:00;;;;;;;23.08;17.25;;;20.00;65.90;;;;;;5058289;28;20390;-60
2021/05/05 11:43:28;;;;;;;32.17;17.85;;;19.90;67.60;;;;;;5056062;28;20021;-59
2021/05/05 11:45:57;;;;;;;21.20;15.73;;;19.80;69.60;;;;;;5062328;28;20182;-62
2021/05/05 11:48:34;;;;;;;50.33;32.33;;;19.90;71.10;;;;;;5063631;28;20029;-62
2021/05/05 11:51:02;;;;;;;87.85;54.67;;;20.00;71.10;;;;;;5065629;28;20024;-65
2021/05/05 11:53:32;;;;;;;175.00;111.47;;;20.00;71.70;;;;;;5065815;28;20021;-70
2021/05/05 11:55:58;;;;;;;124.80;82.13;;;20.10;72.30;;;;;;5064986;28;20021;-67
2021/05/05 11:58:24;;;;;;;127.55;83.78;;;20.10;72.30;;;;;;5063614;28;21015;-65
2021/05/05 12:00:51;;;;;;;119.90;76.05;;;20.00;75.20;;;;;;5065633;28;20029;-66
2021/05/05 12:03:23;;;;;;;62.47;44.38;;;20.00;72.30;;;;;;5046847;28;20032;-65
2021/05/05 12:05:49;;;;;;;70.88;49.22;;;20.00;68.20;;;;;;5045611;28;20479;-67
2021/05/05 12:08:15;;;;;;;67.85;46.00;;;19.90;69.30;;;;;;5046761;28;20028;-67
2021/05/05 12:10:48;;;;;;;65.18;44.95;;;19.90;69.50;;;;;;5065049;28;20021;-68
2021/05/05 12:13:25;;;;;;;49.17;32.53;;;19.90;68.80;;;;;;5054212;28;20028;-70
2021/05/05 12:16:04;;;;;;;73.03;48.40;;;19.80;66.80;;;;;;5065549;28;20181;-69
2021/05/05 12:18:36;;;;;;;;;;;19.80;66.40;;;;;;5065786;28;20067;-71
2021/05/05 12:21:08;;;;;;;;;;;19.80;65.20;;;;;;5065499;28;19943;-70
2021/05/05 12:23:44;;;;;;;161.38;92.35;;;19.70;65.60;;;;;;5064926;28;20423;-70
2021/05/05 12:26:14;;;;;;;127.93;77.65;;;19.70;66.70;;;;;;5065083;28;20095;-66
2021/05/05 12:28:40;;;;;;;80.60;49.38;;;19.70;65.80;;;;;;5064403;28;20017;-66
2021/05/05 12:31:05;;;;;;;71.90;43.85;;;19.70;64.50;;;;;;5071775;28;20021;-69
2021/05/05 12:33:31;;;;;;;53.35;33.22;;;19.70;62.70;;;;;;5057096;28;20024;-70
2021/05/05 12:36:02;;;;;;;38.28;25.90;;;19.80;62.50;;;;;;5065583;28;20043;-71
2021/05/05 12:38:36;;;;;;;36.97;25.08;;;19.70;62.30;;;;;;5045836;28;20016;-68
2021/05/05 12:41:05;;;;;;;32.65;21.23;;;19.70;62.40;;;;;;5064900;28;20029;-68
2021/05/05 12:43:32;;;;;;;25.63;17.60;;;19.70;62.30;;;;;;5064467;28;20017;-69